createdAt,value
2018-09-06T00:01:17.348Z,21.39
2018-09-06T00:03:46.392Z,21.42
2018-09-06T00:06:15.801Z,21.41
2018-09-06T00:08:45.256Z,21.40
2018-09-06T00:11:14.714Z,21.34
2018-09-06T00:13:43.917Z,21.30
2018-09-06T00:16:13.205Z,21.24
2018-09-06T00:18:42.487Z,21.15
2018-09-06T00:21:11.709Z,21.13
2018-09-06T00:23:41.094Z,21.10
2018-09-06T00:26:10.460Z,21.12
2018-09-06T00:28:39.483Z,21.08
2018-09-06T00:31:08.573Z,21.03
2018-09-06T00:33:37.800Z,21.08
2018-09-06T00:36:07.073Z,21.04
2018-09-06T00:38:36.385Z,20.98
2018-09-06T00:41:05.671Z,20.94
2018-09-06T00:43:35.151Z,20.94
2018-09-06T00:46:04.280Z,20.88
2018-09-06T00:48:33.629Z,20.88
2018-09-06T00:51:02.940Z,20.85
2018-09-06T00:53:32.230Z,20.84
2018-09-06T00:56:01.532Z,20.83
2018-09-06T00:58:30.685Z,20.74
2018-09-06T01:00:59.885Z,20.72
2018-09-06T01:03:28.906Z,20.67
2018-09-06T01:05:57.927Z,20.61
2018-09-06T01:08:27.239Z,20.59
2018-09-06T01:10:56.607Z,20.56
2018-09-06T01:13:25.570Z,20.55
2018-09-06T01:15:55.102Z,20.58
2018-09-06T01:18:24.131Z,20.57
2018-09-06T01:20:53.387Z,20.47
2018-09-06T01:23:22.647Z,20.49
2018-09-06T01:25:52.035Z,20.49
2018-09-06T01:28:21.845Z,20.46
2018-09-06T01:30:51.259Z,20.48
2018-09-06T01:33:20.522Z,20.45
2018-09-06T01:35:54.745Z,20.57
2018-09-06T01:38:23.924Z,20.58
2018-09-06T01:40:53.349Z,20.66
2018-09-06T01:43:22.615Z,20.63
2018-09-06T01:45:51.804Z,20.60
2018-09-06T01:48:21.040Z,20.56
2018-09-06T01:50:50.195Z,20.53
2018-09-06T01:53:19.512Z,20.42
2018-09-06T01:55:48.964Z,20.39
2018-09-06T01:58:18.191Z,20.42
2018-09-06T02:00:47.664Z,20.47
2018-09-06T02:03:16.620Z,20.51
2018-09-06T02:05:45.890Z,20.52
2018-09-06T02:08:15.198Z,20.55
2018-09-06T02:10:44.281Z,20.57
2018-09-06T02:13:13.604Z,20.57
2018-09-06T02:15:42.883Z,20.57
2018-09-06T02:18:11.911Z,20.61
2018-09-06T02:20:41.080Z,20.72
2018-09-06T02:23:10.367Z,20.77
2018-09-06T02:25:39.536Z,20.83
2018-09-06T02:28:08.968Z,20.75
2018-09-06T02:30:38.163Z,20.80
2018-09-06T02:33:07.182Z,20.78
2018-09-06T02:35:36.280Z,20.72
2018-09-06T02:38:05.552Z,20.74
2018-09-06T02:40:38.724Z,20.83
2018-09-06T02:43:09.197Z,20.80
2018-09-06T02:45:38.435Z,20.80
2018-09-06T02:48:07.751Z,20.79
2018-09-06T02:50:42.333Z,20.75
2018-09-06T02:53:11.539Z,20.72
2018-09-06T02:55:40.971Z,20.62
2018-09-06T02:58:10.219Z,20.57
2018-09-06T03:00:39.943Z,20.50
2018-09-06T03:03:09.169Z,20.50
2018-09-06T03:05:38.496Z,20.48
2018-09-06T03:08:07.409Z,20.51
2018-09-06T03:10:43.588Z,20.49
2018-09-06T03:13:13.091Z,20.47
2018-09-06T03:15:42.561Z,20.44
2018-09-06T03:18:11.879Z,20.45
2018-09-06T03:20:40.999Z,20.45
2018-09-06T03:23:10.136Z,20.38
2018-09-06T03:25:39.291Z,20.41
2018-09-06T03:28:08.783Z,20.35
2018-09-06T03:30:38.083Z,20.31
2018-09-06T03:33:07.436Z,20.24
2018-09-06T03:35:36.640Z,20.22
2018-09-06T03:38:05.953Z,20.17
2018-09-06T03:40:34.923Z,20.14
2018-09-06T03:43:03.983Z,20.11
2018-09-06T03:45:33.267Z,20.11
2018-09-06T03:48:02.661Z,20.11
2018-09-06T03:50:32.143Z,20.09
2018-09-06T03:53:01.786Z,20.02
2018-09-06T03:55:30.750Z,19.99
2018-09-06T03:57:59.867Z,20.00
2018-09-06T04:00:29.227Z,20.03
2018-09-06T04:02:58.402Z,20.01
2018-09-06T04:05:27.843Z,20.00
2018-09-06T04:07:57.263Z,20.04
2018-09-06T04:10:26.567Z,20.05
2018-09-06T04:12:55.682Z,20.03
2018-09-06T04:15:25.048Z,20.02
2018-09-06T04:17:54.307Z,20.04
2018-09-06T04:20:23.685Z,20.08
2018-09-06T04:22:53.255Z,20.11
2018-09-06T04:25:22.339Z,20.11
2018-09-06T04:27:51.809Z,20.11
2018-09-06T04:30:21.047Z,20.11
2018-09-06T04:32:50.204Z,20.15
2018-09-06T04:35:19.669Z,20.15
2018-09-06T04:37:49.072Z,20.14
2018-09-06T04:40:18.402Z,20.21
2018-09-06T04:42:47.564Z,20.24
2018-09-06T04:45:16.645Z,20.26
2018-09-06T04:47:45.856Z,20.26
2018-09-06T04:50:15.181Z,20.29
2018-09-06T04:52:44.348Z,20.30
2018-09-06T04:55:13.753Z,20.33
2018-09-06T04:57:43.040Z,20.39
2018-09-06T05:00:12.475Z,20.39
2018-09-06T05:02:41.941Z,20.38
2018-09-06T05:05:11.127Z,20.41
2018-09-06T05:07:40.216Z,20.38
2018-09-06T05:10:09.588Z,20.47
2018-09-06T05:12:38.754Z,20.50
2018-09-06T05:15:08.166Z,20.56
2018-09-06T05:17:37.767Z,20.60
2018-09-06T05:20:06.956Z,20.65
2018-09-06T05:22:35.980Z,20.63
2018-09-06T05:25:05.435Z,20.69
2018-09-06T05:27:34.634Z,20.80
2018-09-06T05:30:03.989Z,20.86
2018-09-06T05:32:33.325Z,20.94
2018-09-06T05:35:02.547Z,21.09
2018-09-06T05:37:31.921Z,21.14
2018-09-06T05:40:01.430Z,21.13
2018-09-06T05:42:30.618Z,21.11
2018-09-06T05:45:00.038Z,21.12
2018-09-06T05:47:29.256Z,21.06
2018-09-06T05:49:58.480Z,21.13
2018-09-06T05:52:27.447Z,21.16
2018-09-06T05:54:56.531Z,21.11
2018-09-06T05:57:25.821Z,21.15
2018-09-06T05:59:54.667Z,21.18
2018-09-06T06:02:23.989Z,21.22
2018-09-06T06:04:52.919Z,21.24
2018-09-06T06:07:23.437Z,21.29
2018-09-06T06:09:52.405Z,21.34
2018-09-06T06:12:21.484Z,21.43
2018-09-06T06:14:50.499Z,21.40
2018-09-06T06:17:19.660Z,21.44
2018-09-06T06:19:49.018Z,21.60
2018-09-06T06:22:18.143Z,21.62
2018-09-06T06:24:47.588Z,21.63
2018-09-06T06:27:16.900Z,21.76
2018-09-06T06:29:46.383Z,21.89
2018-09-06T06:32:15.794Z,21.90
2018-09-06T06:34:44.934Z,22.01
2018-09-06T06:37:14.078Z,22.07
2018-09-06T06:39:43.271Z,22.04
2018-09-06T06:42:12.688Z,22.18
2018-09-06T06:44:41.880Z,22.22
2018-09-06T06:47:11.135Z,22.29
2018-09-06T06:49:40.336Z,22.34
2018-09-06T06:52:09.519Z,22.49
2018-09-06T06:54:38.811Z,22.65
2018-09-06T06:57:08.232Z,22.85
2018-09-06T06:59:37.168Z,22.91
2018-09-06T07:02:06.412Z,23.00
2018-09-06T07:04:35.615Z,23.17
2018-09-06T07:07:04.845Z,23.20
2018-09-06T07:09:34.000Z,23.36
2018-09-06T07:12:03.441Z,23.40
2018-09-06T07:14:32.658Z,23.47
2018-09-06T07:17:02.576Z,23.51
2018-09-06T07:19:31.667Z,23.54
2018-09-06T07:22:00.845Z,23.52
2018-09-06T07:24:29.956Z,23.42
2018-09-06T07:26:59.195Z,23.44
2018-09-06T07:29:28.367Z,23.53
2018-09-06T07:31:57.734Z,23.55
2018-09-06T07:34:27.119Z,23.62
2018-09-06T07:36:56.012Z,23.67
2018-09-06T07:39:25.432Z,23.75
2018-09-06T07:41:54.304Z,23.85
2018-09-06T07:44:23.555Z,24.01
2018-09-06T07:46:52.845Z,24.30
2018-09-06T07:49:21.743Z,24.70
2018-09-06T07:51:50.996Z,25.10
2018-09-06T07:54:20.247Z,25.57
2018-09-06T07:56:49.592Z,26.01
2018-09-06T07:59:18.756Z,26.29
2018-09-06T08:01:47.653Z,26.30
2018-09-06T08:04:17.158Z,26.05
2018-09-06T08:06:46.183Z,25.92
2018-09-06T08:09:15.072Z,25.92
2018-09-06T08:11:44.478Z,25.63
2018-09-06T08:14:13.761Z,25.62
2018-09-06T08:16:42.939Z,25.73
2018-09-06T08:19:12.539Z,25.95
2018-09-06T08:21:41.456Z,26.15
2018-09-06T08:24:10.500Z,26.05
2018-09-06T08:26:39.961Z,25.95
2018-09-06T08:29:09.175Z,25.79
2018-09-06T08:31:38.503Z,25.79
2018-09-06T08:34:07.395Z,26.23
2018-09-06T08:36:36.551Z,26.49
2018-09-06T08:39:08.193Z,26.60
2018-09-06T08:41:37.955Z,26.51
2018-09-06T08:44:07.021Z,26.21
2018-09-06T08:46:36.308Z,26.00
2018-09-06T08:49:05.506Z,25.77
2018-09-06T08:51:34.844Z,25.50
2018-09-06T08:54:04.028Z,25.38
2018-09-06T08:56:33.052Z,25.81
2018-09-06T08:59:02.484Z,26.52
2018-09-06T09:01:36.479Z,27.00
2018-09-06T09:04:05.704Z,27.20
2018-09-06T09:06:34.896Z,27.32
2018-09-06T09:09:05.616Z,27.43
2018-09-06T09:11:34.914Z,27.66
2018-09-06T09:14:04.252Z,27.78
2018-09-06T09:16:33.516Z,27.77
2018-09-06T09:19:02.808Z,27.62
2018-09-06T09:21:32.272Z,27.47
2018-09-06T09:24:01.250Z,27.37
2018-09-06T09:26:30.709Z,27.32
2018-09-06T09:28:59.780Z,27.62
2018-09-06T09:31:29.059Z,28.07
2018-09-06T09:33:58.339Z,28.78
2018-09-06T09:36:27.705Z,29.40
2018-09-06T09:38:56.904Z,30.51
2018-09-06T09:41:25.990Z,30.69
2018-09-06T09:43:55.406Z,31.21
2018-09-06T09:48:53.007Z,31.12
2018-09-06T09:51:22.036Z,30.32
2018-09-06T09:53:51.290Z,29.91
2018-09-06T09:56:20.703Z,29.69
2018-09-06T09:58:49.740Z,29.72
2018-09-06T10:01:19.188Z,29.65
2018-09-06T10:03:53.696Z,29.29
2018-09-06T10:06:27.998Z,29.85
2018-09-06T10:09:02.208Z,32.10
2018-09-06T10:11:31.513Z,34.33
2018-09-06T10:14:00.864Z,35.43
2018-09-06T10:16:29.940Z,36.62
2018-09-06T10:18:59.018Z,37.93
2018-09-06T10:21:28.119Z,39.29
2018-09-06T10:23:57.351Z,40.62
2018-09-06T10:26:27.784Z,41.77
2018-09-06T10:28:57.112Z,42.17
2018-09-06T10:31:26.509Z,42.84
2018-09-06T10:33:55.763Z,43.66
2018-09-06T10:36:24.984Z,44.42
2018-09-06T10:38:54.260Z,45.42
2018-09-06T10:41:23.465Z,44.95
2018-09-06T10:43:52.583Z,42.24
2018-09-06T10:46:21.856Z,40.25
2018-09-06T10:48:50.891Z,37.63
2018-09-06T10:51:20.380Z,35.55
2018-09-06T10:53:49.840Z,34.81
2018-09-06T10:56:19.343Z,34.61
2018-09-06T10:58:48.402Z,34.70
2018-09-06T11:01:22.176Z,33.76
2018-09-06T11:03:53.650Z,34.70
2018-09-06T11:06:23.063Z,34.51
2018-09-06T11:08:52.334Z,35.11
2018-09-06T11:11:21.765Z,36.48
2018-09-06T11:13:50.743Z,36.40
2018-09-06T11:16:20.650Z,36.38
2018-09-06T11:18:50.053Z,37.86
2018-09-06T11:21:19.503Z,38.35
2018-09-06T11:23:48.760Z,38.79
2018-09-06T11:26:17.716Z,38.14
2018-09-06T11:28:46.855Z,36.93
2018-09-06T11:31:15.935Z,35.78
2018-09-06T11:33:45.387Z,37.03
2018-09-06T11:36:14.456Z,37.64
2018-09-06T11:38:44.136Z,39.13
2018-09-06T11:41:13.413Z,40.56
2018-09-06T11:43:42.733Z,42.11
2018-09-06T11:46:11.731Z,43.02
2018-09-06T11:48:41.241Z,44.05
2018-09-06T11:51:10.626Z,44.70
2018-09-06T11:53:39.732Z,44.81
2018-09-06T11:56:09.152Z,45.48
2018-09-06T11:58:38.453Z,46.28
2018-09-06T12:01:07.628Z,45.88
2018-09-06T12:03:37.050Z,44.21
2018-09-06T12:06:06.115Z,42.87
2018-09-06T12:08:35.436Z,43.21
2018-09-06T12:11:04.675Z,44.21
2018-09-06T12:13:34.053Z,45.26
2018-09-06T12:16:02.946Z,46.36
2018-09-06T12:18:32.399Z,45.87
2018-09-06T12:21:01.760Z,43.83
2018-09-06T12:23:31.014Z,43.22
2018-09-06T12:26:00.228Z,43.27
2018-09-06T12:28:29.496Z,43.73
2018-09-06T12:30:58.787Z,42.44
2018-09-06T12:33:28.455Z,41.40
2018-09-06T12:35:57.818Z,42.23
2018-09-06T12:38:26.760Z,43.40
2018-09-06T12:40:55.712Z,42.67
2018-09-06T12:43:24.786Z,41.86
2018-09-06T12:45:54.237Z,42.43
2018-09-06T12:48:23.596Z,42.58
2018-09-06T12:50:52.948Z,42.61
2018-09-06T12:53:22.244Z,41.54
2018-09-06T12:55:51.295Z,41.12
2018-09-06T12:58:20.577Z,41.91
2018-09-06T13:00:49.777Z,43.13
2018-09-06T13:03:19.236Z,43.69
2018-09-06T13:05:48.725Z,43.46
2018-09-06T13:08:18.135Z,42.75
2018-09-06T13:10:47.196Z,42.46
2018-09-06T13:13:16.597Z,42.79
2018-09-06T13:15:45.716Z,43.58
2018-09-06T13:18:14.835Z,43.91
2018-09-06T13:20:44.283Z,42.78
2018-09-06T13:23:13.180Z,40.74
2018-09-06T13:25:42.574Z,38.77
2018-09-06T13:28:11.943Z,37.18
2018-09-06T13:30:41.219Z,36.14
2018-09-06T13:33:10.486Z,35.58
2018-09-06T13:35:39.693Z,35.84
2018-09-06T13:38:08.919Z,36.03
2018-09-06T13:40:38.104Z,36.04
2018-09-06T13:43:07.099Z,35.95
2018-09-06T13:45:36.100Z,35.79
2018-09-06T13:48:05.479Z,35.49
2018-09-06T13:50:34.641Z,35.10
2018-09-06T13:53:04.028Z,34.71
2018-09-06T13:55:32.862Z,34.30
2018-09-06T13:58:02.114Z,33.97
2018-09-06T14:00:31.573Z,33.73
2018-09-06T14:03:00.601Z,33.55
2018-09-06T14:05:29.775Z,33.38
2018-09-06T14:07:58.965Z,33.14
2018-09-06T14:10:28.206Z,32.75
2018-09-06T14:12:57.532Z,32.42
2018-09-06T14:15:26.705Z,32.17
2018-09-06T14:17:55.663Z,31.90
2018-09-06T14:20:24.764Z,31.68
2018-09-06T14:22:53.894Z,31.27
2018-09-06T14:25:23.086Z,31.09
2018-09-06T14:27:52.286Z,30.97
2018-09-06T14:30:21.176Z,30.98
2018-09-06T14:32:50.229Z,30.99
2018-09-06T14:35:19.505Z,30.91
2018-09-06T14:37:48.676Z,30.67
2018-09-06T14:40:17.798Z,30.50
2018-09-06T14:42:46.937Z,30.53
2018-09-06T14:45:16.591Z,30.61
2018-09-06T14:47:46.113Z,30.52
2018-09-06T14:50:15.431Z,30.42
2018-09-06T14:52:44.984Z,30.20
2018-09-06T14:55:14.147Z,30.07
2018-09-06T14:57:43.386Z,29.98
2018-09-06T15:00:12.777Z,29.94
2018-09-06T15:02:42.062Z,29.89
2018-09-06T15:05:11.191Z,29.80
2018-09-06T15:07:40.144Z,29.75
2018-09-06T15:10:09.345Z,29.62
2018-09-06T15:12:38.619Z,29.45
2018-09-06T15:15:07.934Z,29.37
2018-09-06T15:17:37.332Z,29.24
2018-09-06T15:20:06.473Z,29.17
2018-09-06T15:22:35.423Z,29.16
2018-09-06T15:25:04.642Z,29.22
2018-09-06T15:27:33.896Z,29.14
2018-09-06T15:30:03.212Z,29.01
2018-09-06T15:32:32.455Z,28.90
2018-09-06T15:35:01.864Z,28.82
2018-09-06T15:37:31.195Z,28.62
2018-09-06T15:40:00.464Z,28.49
2018-09-06T15:42:29.906Z,28.33
2018-09-06T15:44:59.251Z,28.19
2018-09-06T15:47:28.408Z,28.10
2018-09-06T15:49:57.546Z,27.99
2018-09-06T15:52:26.847Z,27.91
2018-09-06T15:54:55.923Z,27.84
2018-09-06T15:57:24.992Z,27.76
2018-09-06T15:59:54.496Z,27.80
2018-09-06T16:02:23.793Z,27.76
2018-09-06T16:04:53.140Z,27.80
2018-09-06T16:07:22.509Z,27.74
2018-09-06T16:09:51.809Z,27.67
2018-09-06T16:12:21.081Z,27.47
2018-09-06T16:14:50.327Z,27.32
2018-09-06T16:17:19.524Z,27.31
2018-09-06T16:19:49.011Z,27.33
2018-09-06T16:22:17.805Z,27.28
2018-09-06T16:24:47.227Z,27.28
2018-09-06T16:27:16.463Z,27.29
2018-09-06T16:29:45.693Z,27.12
2018-09-06T16:32:15.187Z,26.98
2018-09-06T16:34:44.524Z,26.90
2018-09-06T16:37:13.913Z,26.76
2018-09-06T16:39:43.271Z,26.62
2018-09-06T16:42:12.311Z,26.48
2018-09-06T16:44:41.381Z,26.32
2018-09-06T16:47:10.546Z,26.14
2018-09-06T16:49:39.805Z,25.93
2018-09-06T16:52:09.147Z,25.77
2018-09-06T16:54:38.505Z,25.71
2018-09-06T16:57:07.752Z,25.74
2018-09-06T16:59:37.020Z,25.71
2018-09-06T17:02:06.016Z,25.65
2018-09-06T17:04:35.174Z,25.65
2018-09-06T17:07:04.547Z,25.60
2018-09-06T17:09:33.804Z,25.58
2018-09-06T17:12:03.127Z,25.54
2018-09-06T17:14:32.538Z,25.52
2018-09-06T17:17:01.490Z,25.55
2018-09-06T17:19:30.625Z,25.51
2018-09-06T17:21:59.895Z,25.50
2018-09-06T17:24:29.125Z,25.43
2018-09-06T17:26:58.366Z,25.39
2018-09-06T17:29:27.593Z,25.38
2018-09-06T17:31:56.795Z,25.32
2018-09-06T17:34:25.927Z,25.32
2018-09-06T17:36:54.920Z,25.24
2018-09-06T17:39:24.249Z,25.23
2018-09-06T17:41:53.552Z,25.21
2018-09-06T17:44:22.697Z,25.27
2018-09-06T17:46:52.087Z,25.17
2018-09-06T17:49:21.452Z,25.11
2018-09-06T17:51:50.763Z,25.11
2018-09-06T17:54:20.174Z,25.12
2018-09-06T17:56:49.581Z,25.17
2018-09-06T17:59:18.766Z,25.21
2018-09-06T18:01:47.864Z,25.10
2018-09-06T18:04:16.996Z,25.15
2018-09-06T18:06:46.388Z,25.08
2018-09-06T18:09:16.929Z,25.07
2018-09-06T18:11:48.021Z,25.06
2018-09-06T18:14:17.155Z,25.04
2018-09-06T18:16:47.194Z,25.10
2018-09-06T18:19:16.568Z,25.09
2018-09-06T18:21:45.574Z,25.11
2018-09-06T18:24:14.794Z,25.15
2018-09-06T18:26:44.015Z,25.06
2018-09-06T18:29:13.306Z,25.11
2018-09-06T18:31:42.305Z,25.13
2018-09-06T18:34:11.748Z,25.10
2018-09-06T18:36:41.067Z,25.02
2018-09-06T18:39:10.511Z,24.99
2018-09-06T18:41:39.953Z,24.97
2018-09-06T18:44:09.529Z,24.92
2018-09-06T18:46:39.489Z,24.89
2018-09-06T18:49:10.732Z,24.91
2018-09-06T18:51:39.929Z,24.82
2018-09-06T18:54:09.016Z,24.87
2018-09-06T18:56:38.311Z,24.82
2018-09-06T18:59:07.711Z,24.79
2018-09-06T19:01:37.209Z,24.71
2018-09-06T19:04:06.559Z,24.66
2018-09-06T19:06:35.796Z,24.64
2018-09-06T19:09:06.534Z,24.61
2018-09-06T19:11:35.801Z,24.58
2018-09-06T19:14:05.028Z,24.57
2018-09-06T19:16:34.210Z,24.58
2018-09-06T19:19:03.343Z,24.58
2018-09-06T19:21:33.011Z,24.55
2018-09-06T19:24:02.179Z,24.51
2018-09-06T19:26:31.610Z,24.51
2018-09-06T19:29:00.959Z,24.50
2018-09-06T19:31:30.187Z,24.54
2018-09-06T19:33:59.651Z,24.50
2018-09-06T19:36:30.161Z,24.50
2018-09-06T19:38:59.341Z,24.45
2018-09-06T19:41:28.299Z,24.43
2018-09-06T19:43:58.133Z,24.44
2018-09-06T19:46:27.144Z,24.46
2018-09-06T19:48:56.431Z,24.43
2018-09-06T19:51:25.468Z,24.37
2018-09-06T19:53:54.807Z,24.36
2018-09-06T19:56:24.008Z,24.33
2018-09-06T19:58:53.207Z,24.33
2018-09-06T20:01:22.516Z,24.30
2018-09-06T20:03:51.531Z,24.26
2018-09-06T20:06:20.721Z,24.22
2018-09-06T20:08:49.657Z,24.24
2018-09-06T20:11:18.884Z,24.30
2018-09-06T20:13:48.124Z,24.32
2018-09-06T20:16:17.507Z,24.28
2018-09-06T20:18:46.403Z,24.27
2018-09-06T20:21:15.927Z,24.31
2018-09-06T20:23:45.259Z,24.24
2018-09-06T20:26:14.523Z,24.22
2018-09-06T20:28:43.862Z,24.18
2018-09-06T20:31:13.202Z,24.18
2018-09-06T20:33:42.601Z,24.16
2018-09-06T20:36:11.908Z,24.10
2018-09-06T20:38:41.107Z,24.06
2018-09-06T20:41:09.995Z,24.00
2018-09-06T20:43:39.390Z,23.95
2018-09-06T20:46:08.654Z,23.97
2018-09-06T20:48:37.979Z,23.96
2018-09-06T20:51:07.435Z,23.92
2018-09-06T20:53:36.907Z,23.94
2018-09-06T20:56:06.238Z,23.90
2018-09-06T20:58:35.460Z,23.91
2018-09-06T21:01:04.594Z,23.89
2018-09-06T21:03:33.674Z,23.81
2018-09-06T21:06:02.849Z,23.81
2018-09-06T21:08:32.036Z,23.79
2018-09-06T21:11:01.435Z,23.85
2018-09-06T21:13:30.403Z,23.82
2018-09-06T21:15:59.628Z,23.78
2018-09-06T21:18:28.551Z,23.79
2018-09-06T21:20:57.955Z,23.75
2018-09-06T21:23:26.992Z,23.70
2018-09-06T21:25:56.316Z,23.71
2018-09-06T21:28:25.555Z,23.70
2018-09-06T21:30:54.825Z,23.68
2018-09-06T21:33:24.100Z,23.70
2018-09-06T21:35:53.117Z,23.72
2018-09-06T21:38:22.431Z,23.66
2018-09-06T21:40:51.657Z,23.68
2018-09-06T21:43:20.860Z,23.62
2018-09-06T21:45:50.072Z,23.64
2018-09-06T21:48:19.271Z,23.64
2018-09-06T21:50:48.519Z,23.59
2018-09-06T21:53:17.755Z,23.56
2018-09-06T21:55:47.115Z,23.53
2018-09-06T21:58:16.567Z,23.50
2018-09-06T22:00:45.999Z,23.49
2018-09-06T22:03:20.052Z,23.48
2018-09-06T22:05:49.461Z,23.47
2018-09-06T22:08:18.738Z,23.44
2018-09-06T22:10:47.856Z,23.43
2018-09-06T22:13:17.067Z,23.46
2018-09-06T22:15:46.423Z,23.47
2018-09-06T22:18:15.495Z,23.48
2018-09-06T22:20:44.694Z,23.47
2018-09-06T22:23:14.083Z,23.49
2018-09-06T22:25:43.437Z,23.49
2018-09-06T22:28:12.564Z,23.40
2018-09-06T22:30:41.756Z,23.43
2018-09-06T22:33:10.752Z,23.45
2018-09-06T22:35:40.116Z,23.44
2018-09-06T22:38:09.483Z,23.39
2018-09-06T22:40:38.594Z,23.41
2018-09-06T22:43:07.993Z,23.36
2018-09-06T22:45:36.923Z,23.38
2018-09-06T22:48:06.398Z,23.37
2018-09-06T22:50:35.580Z,23.35
2018-09-06T22:53:04.940Z,23.31
2018-09-06T22:55:34.219Z,23.30
2018-09-06T22:58:03.495Z,23.35
2018-09-06T23:00:32.648Z,23.30
2018-09-06T23:04:09.668Z,23.26
2018-09-06T23:06:38.512Z,23.18
2018-09-06T23:09:09.098Z,23.16
2018-09-06T23:11:38.163Z,23.15
2018-09-06T23:14:07.527Z,23.13
2018-09-06T23:16:36.565Z,23.11
2018-09-06T23:19:05.878Z,23.05
2018-09-06T23:21:35.267Z,23.03
2018-09-06T23:24:04.326Z,23.01
2018-09-06T23:26:33.349Z,22.97
2018-09-06T23:29:02.288Z,22.94
2018-09-06T23:31:31.503Z,22.96
2018-09-06T23:34:00.796Z,22.93
2018-09-06T23:36:30.013Z,22.94
2018-09-06T23:38:59.504Z,22.92
2018-09-06T23:41:28.899Z,22.89
2018-09-06T23:43:58.340Z,22.92
2018-09-06T23:46:27.299Z,22.94
2018-09-06T23:48:56.263Z,22.93
2018-09-06T23:51:25.633Z,22.92
2018-09-06T23:53:54.870Z,22.91
2018-09-06T23:56:24.025Z,23.00
2018-09-06T23:58:53.370Z,23.00
